Time;durP1;ratioP1;P1;durP2;ratioP2;P2;SDS_P1;SDS_P2;PMS_P1;PMS_P2;Temp;Humidity;BMP_temperature;BMP_pressure;BME280_temperature;BME280_humidity;BME280_pressure;Samples;Min_cycle;Max_cycle;Signal;HPM_P1;HPM_P2
2021/06/23 00:02:26;;;;;;;;;;;;;;;;;;5112430;28;19924;-62
2021/06/23 00:04:53;;;;;;;;;;;;;;;;;;5112273;28;19930;-62
2021/06/23 00:07:20;;;;;;;;;;;;;;;;;;5105888;28;20407;-62
2021/06/23 00:09:47;;;;;;;;;;;;;;;;;;5091491;28;19924;-62
2021/06/23 00:12:16;;;;;;;;;;;;;;;;;;5091791;28;19924;-61
2021/06/23 00:14:43;;;;;;;;;;;;;;;;;;5091590;28;19930;-62
2021/06/23 00:17:10;;;;;;;;;;;;;;;;;;5091801;28;20303;-62
2021/06/23 00:19:37;;;;;;;;;;;;;;;;;;5091456;28;19924;-62
2021/06/23 00:22:03;;;;;;;;;;;;;;;;;;5091794;28;19930;-62
2021/06/23 00:24:30;;;;;;;;;;;;;;;;;;5096533;28;20304;-62
2021/06/23 00:26:57;;;;;;;;;;;;;;;;;;5111902;28;19924;-62
2021/06/23 00:29:24;;;;;;;;;;;;;;;;;;5111633;28;19959;-63
2021/06/23 00:31:51;;;;;;;;;;;;;;;;;;5111909;28;19992;-63
2021/06/23 00:34:18;;;;;;;;;;;;;;;;;;5111853;28;19974;-63
2021/06/23 00:36:45;;;;;;;;;;;;;;;;;;5112039;28;19950;-62
2021/06/23 00:39:12;;;;;;;;;;;;;;;;;;5111723;28;19931;-62
2021/06/23 00:41:39;;;;;;;;;;;;;;;;;;5111706;28;20026;-62
2021/06/23 00:44:06;;;;;;;;;;;;;;;;;;5111994;28;19969;-66
2021/06/23 00:46:33;;;;;;;;;;;;;;;;;;5111454;28;19930;-62
2021/06/23 00:49:00;;;;;;;;;;;;;;;;;;5111846;28;20023;-63
2021/06/23 00:51:27;;;;;;;;;;;;;;;;;;5111452;28;19930;-62
2021/06/23 00:53:54;;;;;;;;;;;;;;;;;;5114024;28;19967;-63
2021/06/23 00:56:21;;;;;;;;;;;;;;;;;;5115989;28;20308;-62
2021/06/23 00:58:48;;;;;;;;;;;;;;;;;;5115864;28;20027;-62
2021/06/23 01:01:15;;;;;;;;;;;;;;;;;;5115729;28;20379;-62
2021/06/23 01:03:42;;;;;;;;;;;;;;;;;;5115519;28;19924;-63
2021/06/23 01:06:09;;;;;;;;;;;;;;;;;;5115400;28;19927;-63
2021/06/23 01:08:35;;;;;;;;;;;;;;;;;;5098548;28;20011;-62
2021/06/23 01:11:02;;;;;;;;;;;;;;;;;;5094947;28;20391;-62
2021/06/23 01:13:30;;;;;;;;;;;;;;;;;;5095002;28;19935;-62
2021/06/23 01:15:58;;;;;;;;;;;;;;;;;;5094975;28;19967;-62
2021/06/23 01:18:25;;;;;;;;;;;;;;;;;;5095086;28;19928;-62
2021/06/23 01:20:52;;;;;;;;;;;;;;;;;;5094330;28;20380;-62
2021/06/23 01:23:19;;;;;;;;;;;;;;;;;;5094991;28;19971;-62
2021/06/23 01:25:46;;;;;;;;;;;;;;;;;;5110164;28;20398;-62
2021/06/23 01:28:13;;;;;;;;;;;;;;;;;;5115671;28;19924;-62
2021/06/23 01:30:40;;;;;;;;;;;;;;;;;;5114847;28;19924;-63
2021/06/23 01:33:08;;;;;;;;;;;;;;;;;;5114999;28;19924;-63
2021/06/23 01:35:35;;;;;;;;;;;;;;;;;;5115194;28;20449;-63
2021/06/23 01:38:02;;;;;;;;;;;;;;;;;;5114803;28;19930;-63
2021/06/23 01:40:29;;;;;;;;;;;;;;;;;;5114558;28;19928;-63
2021/06/23 01:42:56;;;;;;;;;;;;;;;;;;5115068;28;19924;-63
2021/06/23 01:45:23;;;;;;;;;;;;;;;;;;5114833;28;20023;-63
2021/06/23 01:47:50;;;;;;;;;;;;;;;;;;5114657;28;19924;-62
2021/06/23 01:50:17;;;;;;;;;;;;;;;;;;5114810;28;20288;-62
2021/06/23 01:52:44;;;;;;;;;;;;;;;;;;5114912;28;19923;-62
2021/06/23 01:55:26;;;;;;;;;;;;;;;;;;5114899;28;19923;-62
2021/06/23 01:57:53;;;;;;;;;;;;;;;;;;5114701;28;19924;-63
2021/06/23 02:00:20;;;;;;;;;;;;;;;;;;5114108;28;20433;-62
2021/06/23 02:02:47;;;;;;;;;;;;;;;;;;5114762;28;19930;-62
2021/06/23 02:05:14;;;;;;;;;;;;;;;;;;5113430;28;19924;-63
2021/06/23 02:07:41;;;;;;;;;;;;;;;;;;5105467;28;19924;-62
2021/06/23 02:10:08;;;;;;;;;;;;;;;;;;5093645;28;20019;-62
2021/06/23 02:12:35;;;;;;;;;;;;;;;;;;5094133;28;19924;-63
2021/06/23 02:15:02;;;;;;;;;;;;;;;;;;5093749;28;19924;-63
2021/06/23 02:17:29;;;;;;;;;;;;;;;;;;5094332;28;19934;-62
2021/06/23 02:19:56;;;;;;;;;;;;;;;;;;5093843;28;19924;-63
2021/06/23 02:22:22;;;;;;;;;;;;;;;;;;5093800;28;19924;-63
2021/06/23 02:24:49;;;;;;;;;;;;;;;;;;5101571;28;19928;-63
2021/06/23 02:27:16;;;;;;;;;;;;;;;;;;5114155;28;19924;-62
2021/06/23 02:29:43;;;;;;;;;;;;;;;;;;5114264;28;20418;-63
2021/06/23 02:32:10;;;;;;;;;;;;;;;;;;5113995;28;19931;-62
2021/06/23 02:34:37;;;;;;;;;;;;;;;;;;5114189;28;19926;-63
2021/06/23 02:37:04;;;;;;;;;;;;;;;;;;5114147;28;20284;-63
2021/06/23 02:39:31;;;;;;;;;;;;;;;;;;5113700;28;19924;-63
2021/06/23 02:41:58;;;;;;;;;;;;;;;;;;5113950;28;19931;-64
2021/06/23 02:44:25;;;;;;;;;;;;;;;;;;5114204;28;20430;-63
2021/06/23 02:46:52;;;;;;;;;;;;;;;;;;5113814;28;19931;-63
2021/06/23 02:49:19;;;;;;;;;;;;;;;;;;5113517;28;19927;-62
2021/06/23 02:51:45;;;;;;;;;;;;;;;;;;5113898;28;20383;-63
2021/06/23 02:54:13;;;;;;;;;;;;;;;;;;5113239;28;19923;-62
2021/06/23 02:56:40;;;;;;;;;;;;;;;;;;5113361;28;19975;-63
2021/06/23 02:59:06;;;;;;;;;;;;;;;;;;5113184;28;19970;-63
2021/06/23 03:01:33;;;;;;;;;;;;;;;;;;5113615;28;19924;-62
2021/06/23 03:04:00;;;;;;;;;;;;;;;;;;5113737;28;20327;-62
2021/06/23 03:06:27;;;;;;;;;;;;;;;;;;5113284;28;19931;-63
2021/06/23 03:08:54;;;;;;;;;;;;;;;;;;5093642;28;19930;-63
2021/06/23 03:11:21;;;;;;;;;;;;;;;;;;5092835;28;20399;-62
2021/06/23 03:13:48;;;;;;;;;;;;;;;;;;5092930;28;19946;-63
2021/06/23 03:16:15;;;;;;;;;;;;;;;;;;5092670;28;19930;-63
2021/06/23 03:18:42;;;;;;;;;;;;;;;;;;5093014;28;20026;-62
2021/06/23 03:21:10;;;;;;;;;;;;;;;;;;5092998;28;19950;-62
2021/06/23 03:23:37;;;;;;;;;;;;;;;;;;5092560;28;20354;-62
2021/06/23 03:26:04;;;;;;;;;;;;;;;;;;5110903;28;20362;-63
2021/06/23 03:28:30;;;;;;;;;;;;;;;;;;5133318;22;19927;-65
2021/06/23 03:30:57;;;;;;;;;;;;;;;;;;5133582;27;20263;-65
2021/06/23 03:33:24;;;;;;;;;;;;;;;;;;5133356;27;19923;-65
2021/06/23 03:35:51;;;;;;;;;;;;;;;;;;5133481;27;19923;-65
2021/06/23 03:38:18;;;;;;;;;;;;;;;;;;5133209;27;19927;-65
2021/06/23 03:40:45;;;;;;;;;;;;;;;;;;5133231;27;19930;-65
2021/06/23 03:43:12;;;;;;;;;;;;;;;;;;5133380;27;19924;-64
2021/06/23 03:45:39;;;;;;;;;;;;;;;;;;5133488;27;19923;-65
2021/06/23 03:48:06;;;;;;;;;;;;;;;;;;5133234;27;19930;-65
2021/06/23 03:50:33;;;;;;;;;;;;;;;;;;5132867;27;20302;-65
2021/06/23 03:53:00;;;;;;;;;;;;;;;;;;5133088;27;19939;-65
2021/06/23 03:55:27;;;;;;;;;;;;;;;;;;5133236;27;20019;-65
2021/06/23 03:57:54;;;;;;;;;;;;;;;;;;5132771;27;20390;-65
2021/06/23 04:00:21;;;;;;;;;;;;;;;;;;5132659;27;19924;-65
2021/06/23 04:02:48;;;;;;;;;;;;;;;;;;5133023;27;19929;-65
2021/06/23 04:05:15;;;;;;;;;;;;;;;;;;5133098;27;20282;-65
2021/06/23 04:07:44;;;;;;;;;;;;;;;;;;5132432;27;20514;-64
2021/06/23 04:10:11;;;;;;;;;;;;;;;;;;5132479;27;20006;-65
2021/06/23 04:12:38;;;;;;;;;;;;;;;;;;5132784;27;20301;-65
2021/06/23 04:15:05;;;;;;;;;;;;;;;;;;5132821;27;19923;-65
2021/06/23 04:17:32;;;;;;;;;;;;;;;;;;5132718;27;19924;-65
2021/06/23 04:19:58;;;;;;;;;;;;;;;;;;5132380;27;19930;-65
2021/06/23 04:22:25;;;;;;;;;;;;;;;;;;5133041;27;20306;-70
2021/06/23 04:24:53;;;;;;;;;;;;;;;;;;5132180;27;20405;-65
2021/06/23 04:27:20;;;;;;;;;;;;;;;;;;5132167;27;19970;-65
2021/06/23 04:29:47;;;;;;;;;;;;;;;;;;5131612;28;19924;-66
2021/06/23 04:32:14;;;;;;;;;;;;;;;;;;5132535;28;19923;-64
2021/06/23 04:34:41;;;;;;;;;;;;;;;;;;5132631;28;20419;-65
2021/06/23 04:37:08;;;;;;;;;;;;;;;;;;5132587;28;19934;-65
2021/06/23 04:39:35;;;;;;;;;;;;;;;;;;5132107;28;19929;-67
2021/06/23 04:42:02;;;;;;;;;;;;;;;;;;5132553;28;20299;-66
2021/06/23 04:44:28;;;;;;;;;;;;;;;;;;5132553;28;20475;-66
2021/06/23 04:46:55;;;;;;;;;;;;;;;;;;5132273;28;19928;-66
2021/06/23 04:49:22;;;;;;;;;;;;;;;;;;5132457;28;19923;-64
2021/06/23 04:51:49;;;;;;;;;;;;;;;;;;5132453;28;20180;-64
2021/06/23 04:54:16;;;;;;;;;;;;;;;;;;5132477;28;20397;-64
2021/06/23 04:56:43;;;;;;;;;;;;;;;;;;5132719;28;19930;-65
2021/06/23 04:59:10;;;;;;;;;;;;;;;;;;5132300;28;19934;-65
2021/06/23 05:01:37;;;;;;;;;;;;;;;;;;5132171;28;20291;-65
2021/06/23 05:04:04;;;;;;;;;;;;;;;;;;5132413;28;19930;-64
2021/06/23 05:06:31;;;;;;;;;;;;;;;;;;5132709;28;19927;-64
2021/06/23 05:08:58;;;;;;;;;;;;;;;;;;5111770;28;19931;-64
2021/06/23 05:11:25;;;;;;;;;;;;;;;;;;5111905;28;20170;-64
2021/06/23 05:13:52;;;;;;;;;;;;;;;;;;5111554;28;20280;-65
2021/06/23 05:16:19;;;;;;;;;;;;;;;;;;5111986;28;19931;-64
2021/06/23 05:18:45;;;;;;;;;;;;;;;;;;5111664;28;19924;-64
2021/06/23 05:21:12;;;;;;;;;;;;;;;;;;5111394;28;20306;-64
2021/06/23 05:23:39;;;;;;;;;;;;;;;;;;5111667;28;19924;-64
2021/06/23 05:26:06;;;;;;;;;;;;;;;;;;5130126;28;19934;-64
2021/06/23 05:28:33;;;;;;;;;;;;;;;;;;5132055;28;19923;-64
2021/06/23 05:31:00;;;;;;;;;;;;;;;;;;5131856;28;20038;-64
2021/06/23 05:33:27;;;;;;;;;;;;;;;;;;5132185;28;20021;-64
2021/06/23 05:35:54;;;;;;;;;;;;;;;;;;5131754;28;19923;-64
2021/06/23 05:38:21;;;;;;;;;;;;;;;;;;5131712;28;19934;-64
2021/06/23 05:40:48;;;;;;;;;;;;;;;;;;5134782;27;20026;-65
2021/06/23 05:43:15;;;;;;;;;;;;;;;;;;5135082;27;19930;-65
2021/06/23 05:45:42;;;;;;;;;;;;;;;;;;5135422;27;19966;-65
2021/06/23 05:48:10;;;;;;;;;;;;;;;;;;5135308;27;19923;-65
2021/06/23 05:50:38;;;;;;;;;;;;;;;;;;5135413;27;19946;-66
2021/06/23 05:53:05;;;;;;;;;;;;;;;;;;5135509;27;19923;-64
2021/06/23 05:55:32;;;;;;;;;;;;;;;;;;5135381;27;19984;-64
2021/06/23 05:57:59;;;;;;;;;;;;;;;;;;5134909;27;19932;-64
2021/06/23 06:00:26;;;;;;;;;;;;;;;;;;5134967;27;19935;-64
2021/06/23 06:02:53;;;;;;;;;;;;;;;;;;5135290;27;20311;-65
2021/06/23 06:05:22;;;;;;;;;;;;;;;;;;5134954;27;19927;-65
2021/06/23 06:07:49;;;;;;;;;;;;;;;;;;5124571;27;19931;-65
2021/06/23 06:10:16;;;;;;;;;;;;;;;;;;5113747;28;20005;-65
2021/06/23 06:12:43;;;;;;;;;;;;;;;;;;5114421;28;19930;-67
2021/06/23 06:15:10;;;;;;;;;;;;;;;;;;5114293;28;20404;-64
2021/06/23 06:17:37;;;;;;;;;;;;;;;;;;5114250;28;20388;-64
2021/06/23 06:20:04;;;;;;;;;;;;;;;;;;5114294;28;20434;-64
2021/06/23 06:22:32;;;;;;;;;;;;;;;;;;5113953;28;20026;-64
2021/06/23 06:24:59;;;;;;;;;;;;;;;;;;5123199;27;20022;-64
2021/06/23 06:27:25;;;;;;;;;;;;;;;;;;5134564;27;19923;-64
2021/06/23 06:29:52;;;;;;;;;;;;;;;;;;5134305;27;19946;-64
2021/06/23 06:32:19;;;;;;;;;;;;;;;;;;5134293;27;19931;-64
2021/06/23 06:34:46;;;;;;;;;;;;;;;;;;5134308;27;20021;-64
2021/06/23 06:37:14;;;;;;;;;;;;;;;;;;5134204;27;20458;-64
2021/06/23 06:39:41;;;;;;;;;;;;;;;;;;5134020;27;20360;-64
2021/06/23 06:42:09;;;;;;;;;;;15.90;99.90;;;;;;5134171;27;19923;-65
2021/06/23 06:44:36;;;;;;;;;;;16.00;99.90;;;;;;5133926;27;19924;-64
2021/06/23 06:47:02;;;;;;;;;;;16.30;99.90;;;;;;5134617;27;19930;-64
2021/06/23 06:49:30;;;;;;;;;;;;;;;;;;5133781;27;20462;-63
2021/06/23 06:51:58;;;;;;;;;;;15.90;99.90;;;;;;5133598;27;19984;-63
2021/06/23 06:54:25;;;;;;;;;;;;;;;;;;5133755;27;19923;-64
2021/06/23 06:56:52;;;;;;;;;;;15.80;99.90;;;;;;5134368;27;19927;-63
2021/06/23 06:59:20;;;;;;;;;;;15.70;99.90;;;;;;5133622;27;20018;-64
2021/06/23 07:01:46;;;;;;;;;;;15.80;99.90;;;;;;5134121;27;19967;-64
2021/06/23 07:04:14;;;;;;;;;;;16.00;99.90;;;;;;5134137;27;20039;-63
2021/06/23 07:06:43;;;;;;;;;;;15.90;99.90;;;;;;5111262;28;20296;-64
2021/06/23 07:09:10;;;;;;;;;;;;;;;;;;5093330;28;19931;-64
2021/06/23 07:11:37;;;;;;;;;;;;;;;;;;5092967;28;19924;-65
2021/06/23 07:14:04;;;;;;;;;;;16.00;99.90;;;;;;5093005;28;20022;-64
2021/06/23 07:16:32;;;;;;;;;;;16.00;99.90;;;;;;5092577;28;19924;-65
2021/06/23 07:18:59;;;;;;;;;;;16.00;99.90;;;;;;5092656;28;19971;-63
2021/06/23 07:21:26;;;;;;;;;;;15.90;99.90;;;;;;5092897;28;20469;-65
2021/06/23 07:23:54;;;;;;;;;;;16.00;99.90;;;;;;5092478;28;20391;-64
2021/06/23 07:26:21;;;;;;;;;;;16.10;99.90;;;;;;5112845;28;19923;-65
2021/06/23 07:28:50;;;;;;;;;;;16.10;99.90;;;;;;5112640;28;19923;-65
2021/06/23 07:31:24;;;;;;;;;;;;;;;;;;5113231;28;19924;-64
2021/06/23 07:33:54;;;;;;;;;;;;;;;;;;5113010;28;19927;-64
2021/06/23 07:36:37;;;;;;;;;;;16.30;99.90;;;;;;5112868;28;19966;-63
2021/06/23 07:39:05;;;;;;;;;;;16.40;99.90;;;;;;5112601;28;19930;-64
2021/06/23 07:41:32;;;;;;;;;;;16.30;99.90;;;;;;5112836;28;20384;-64
2021/06/23 07:43:59;;;;;;;;;;;16.30;99.90;;;;;;5112526;28;19924;-64
2021/06/23 07:46:27;;;;;;;;;;;16.30;99.90;;;;;;5112925;28;19924;-65
2021/06/23 07:48:56;;;;;;;;;;;16.30;99.90;;;;;;5112635;28;20349;-65
2021/06/23 07:51:32;;;;;;;;;;;16.40;99.90;;;;;;5112125;28;19949;-64
2021/06/23 07:54:16;;;;;;;;;;;16.50;99.90;;;;;;5112509;28;20334;-64
2021/06/23 08:01:03;;;;;;;;;;;16.50;99.90;;;;;;5112118;28;20026;-64
2021/06/23 08:03:01;;;;;;;;;;;16.50;99.90;;;;;;5111494;28;20020;-65
2021/06/23 08:08:20;;;;;;;;;;;16.60;99.90;;;;;;5098326;28;20089;-65
2021/06/23 08:10:48;;;;;;;;;;;16.50;99.90;;;;;;5091967;28;19931;-65
2021/06/23 08:13:15;;;;;;;;;;;;;;;;;;5091438;28;19978;-64
2021/06/23 08:15:42;;;;;;;;;;;;;;;;;;5091604;28;20346;-63
2021/06/23 08:18:09;;;;;;;;;;;16.60;99.90;;;;;;5091425;28;19924;-64
2021/06/23 08:20:36;;;;;;;;;;;;;;;;;;5091390;28;19924;-63
2021/06/23 08:23:04;;;;;;;;;;;17.00;99.90;;;;;;5091506;28;20019;-64
2021/06/23 08:25:32;;;;;;;;;;;17.00;99.90;;;;;;5104979;28;19923;-64
2021/06/23 08:27:58;;;;;;;;;;;17.00;99.90;;;;;;5111563;28;19932;-65
2021/06/23 08:30:26;;;;;;;;;;;16.90;99.90;;;;;;5111577;28;20354;-64
2021/06/23 08:32:52;;;;;;;;;;;16.90;99.90;;;;;;5112168;28;19927;-64
2021/06/23 08:35:19;;;;;;;;;;;17.10;99.90;;;;;;5112136;28;20340;-65
2021/06/23 08:37:46;;;;;;;;;;;;;;;;;;5111750;28;20387;-64
2021/06/23 08:40:13;;;;;;;;;;;;;;;;;;5111570;28;19927;-64
2021/06/23 08:42:40;;;;;;;;;;;;;;;;;;5112339;28;19928;-65
2021/06/23 08:45:06;;;;;;;;;;;;;;;;;;5111545;28;20130;-65
2021/06/23 08:47:33;;;;;;;;;;;;;;;;;;5111626;28;19924;-65
2021/06/23 08:50:00;;;;;;;;;;;;;;;;;;5111342;28;20295;-65
2021/06/23 08:52:27;;;;;;;;;;;;;;;;;;5111609;28;20446;-65
2021/06/23 08:54:55;;;;;;;;;;;;;;;;;;5111828;28;19930;-64
2021/06/23 08:57:22;;;;;;;;;;;;;;;;;;5111770;28;20398;-65
2021/06/23 08:59:49;;;;;;;;;;;;;;;;;;5111269;28;20398;-64
2021/06/23 09:02:16;;;;;;;;;;;;;;;;;;5111611;28;20435;-65
2021/06/23 09:04:43;;;;;;;;;;;;;;;;;;5111558;28;19977;-64
2021/06/23 09:07:10;;;;;;;;;;;;;;;;;;5106411;28;20007;-65
2021/06/23 09:09:37;;;;;;;;;;;;;;;;;;5090658;28;20375;-65
2021/06/23 09:12:04;;;;;;;;;;;;;;;;;;5091081;28;19930;-65
2021/06/23 09:14:31;;;;;;;;;;;;;;;;;;5092391;28;20341;-66
2021/06/23 09:16:58;;;;;;;;;;;;;;;;;;5095489;28;20003;-65
2021/06/23 09:19:25;;;;;;;;;;;;;;;;;;5094537;28;20548;-64
2021/06/23 09:21:52;;;;;;;;;;;;;;;;;;5095332;28;20414;-65
2021/06/23 09:24:19;;;;;;;;;;;;;;;;;;5098422;28;20375;-65
2021/06/23 09:26:46;;;;;;;;;;;;;;;;;;5114789;28;20390;-64
2021/06/23 09:29:13;;;;;;;;;;;;;;;;;;5109363;22;19924;-65
2021/06/23 09:31:40;;;;;;;;;;;;;;;;;;5074416;28;20011;-65
2021/06/23 09:34:07;;;;;;;;;;;;;;;;;;5074786;28;19950;-64
2021/06/23 09:36:34;;;;;;;;;;;;;;;;;;5074705;28;20379;-63
2021/06/23 09:39:02;;;;;;;;;;;;;;;;;;5074759;28;19931;-64
2021/06/23 09:41:29;;;;;;;;;;;;;;;;;;5074337;28;19977;-64
2021/06/23 09:43:56;;;;;;;;;;;;;;;;;;5074617;28;19993;-65
2021/06/23 09:46:23;;;;;;;;;;;;;;;;;;5074318;28;20280;-64
2021/06/23 09:48:50;;;;;;;;;;;;;;;;;;5074068;28;19931;-65
2021/06/23 09:51:17;;;;;;;;;;;;;;;;;;5073973;28;19928;-64
2021/06/23 09:53:44;;;;;;;;;;;;;;;;;;5074059;28;19924;-65
2021/06/23 09:56:11;;;;;;;;;;;;;;;;;;5073771;28;20396;-63
2021/06/23 09:58:38;;;;;;;;;;;;;;;;;;5073622;28;19924;-65
2021/06/23 10:01:05;;;;;;;;;;;;;;;;;;5073851;28;19928;-65
2021/06/23 10:03:34;;;;;;;;;;;;;;;;;;5073927;28;20303;-65
2021/06/23 10:06:01;;;;;;;;;;;;;;;;;;5074119;28;19928;-64
2021/06/23 10:08:28;;;;;;;;;;;;;;;;;;5073959;28;19925;-66
2021/06/23 10:10:55;;;;;;;;;;;;;;;;;;5073370;28;19974;-66
2021/06/23 10:13:22;;;;;;;;;;;;;;;;;;5073655;28;20399;-65
2021/06/23 10:15:49;;;;;;;;;;;;;;;;;;5073482;28;20431;-65
2021/06/23 10:18:16;;;;;;;;;;;;;;;;;;5073893;28;20344;-64
2021/06/23 10:20:43;;;;;;;;;;;;;;;;;;5073364;28;20444;-65
2021/06/23 10:23:09;;;;;;;;;;;;;;;;;;5073933;28;19925;-65
2021/06/23 10:25:36;;;;;;;;;;;;;;;;;;5072626;28;19924;-65
2021/06/23 10:28:03;;;;;;;;;;;;;;;;;;5073424;28;20433;-65
2021/06/23 10:30:30;;;;;;;;;;;;;;;;;;5073189;28;20007;-64
2021/06/23 10:32:58;;;;;;;;;;;;;;;;;;5073377;28;19924;-64
2021/06/23 10:35:25;;;;;;;;;;;;;;;;;;5073589;28;19935;-66
2021/06/23 10:37:52;;;;;;;;;;;;;;;;;;5073327;28;20311;-64
2021/06/23 10:40:19;;;;;;;;;;;;;;;;;;5072825;28;19932;-65
2021/06/23 10:42:46;;;;;;;;;;;;;;;;;;5073229;28;19924;-65
2021/06/23 10:45:13;;;;;;;;;;;;;;;;;;5073155;28;19932;-65
2021/06/23 10:47:41;;;;;;;;;;;;;;;;;;5073392;28;19925;-63
2021/06/23 10:50:08;;;;;;;;;;;;;;;;;;5072940;28;19924;-63
2021/06/23 10:52:35;;;;;;;;;;;;;;;;;;5073475;28;20277;-64
2021/06/23 10:55:02;;;;;;;;;;;;;;;;;;5072647;28;19928;-64
2021/06/23 10:57:29;;;;;;;;;;;;;;;;;;5073009;28;19924;-65
2021/06/23 10:59:56;;;;;;;;;;;;;;;;;;5072293;28;19924;-64
2021/06/23 11:02:23;;;;;;;;;;;;;;;;;;5073224;28;19947;-64
2021/06/23 11:04:50;;;;;;;;;;;;;;;;;;5072868;28;19925;-62
2021/06/23 11:07:17;;;;;;;;;;;;;;;;;;5066980;28;20407;-65
2021/06/23 11:09:44;;;;;;;;;;;;;;;;;;5052379;28;19925;-62
2021/06/23 11:12:10;;;;;;;;;;;;;;;;;;5052428;28;19931;-64
2021/06/23 11:14:37;;;;;;;;;;;;;;;;;;5052691;28;19956;-66
2021/06/23 11:17:04;;;;;;;;;;;;;;;;;;5052666;28;19929;-63
2021/06/23 11:19:31;;;;;;;;;;;;;;;;;;5052449;28;19925;-67
2021/06/23 11:21:58;;;;;;;;;;;;;;;;;;5052334;28;19931;-64
2021/06/23 11:24:25;;;;;;;;;;;;;;;;;;5052328;28;19935;-63
2021/06/23 11:26:52;;;;;;;;;;;;;;;;;;5052661;28;20430;-64
2021/06/23 11:29:20;;;;;;;;;;;;;;;;;;5052132;28;20305;-64
2021/06/23 11:31:49;;;;;;;;;;;;;;;;;;5052635;28;19928;-65
2021/06/23 11:34:19;;;;;;;;;;;;;;;;;;5052008;28;19978;-64
2021/06/23 11:36:46;;;;;;;;;;;;;;;;;;5051865;28;19947;-64
2021/06/23 11:39:12;;;;;;;;;;;;;;;;;;5050022;28;20305;-63
2021/06/23 11:41:42;;;;;;;;;;;;;;;;;;5051714;28;19929;-65
2021/06/23 11:44:09;;;;;;;;;;;;;;;;;;5051788;28;19925;-64
2021/06/23 11:46:36;;;;;;;;;;;;;;;;;;5049595;28;19925;-65
2021/06/23 11:49:03;;;;;;;;;;;;;;;;;;5052238;28;19931;-64
2021/06/23 11:51:30;;;;;;;;;;;;;;;;;;5051850;28;19925;-63
2021/06/23 11:53:57;;;;;;;;;;;;;;;;;;5052064;28;20007;-65
2021/06/23 11:56:24;;;;;;;;;;;;;;;;;;5051454;28;20002;-63
2021/06/23 11:58:51;;;;;;;;;;;;;;;;;;5054101;28;19967;-63
2021/06/23 12:01:18;;;;;;;;;;;;;;;;;;5053430;28;19925;-65
2021/06/23 12:03:45;;;;;;;;;;;;;;;;;;5053420;28;19929;-63
2021/06/23 12:06:12;;;;;;;;;;;;;;;;;;5052348;28;19925;-64
2021/06/23 12:08:39;;;;;;;;;;;;;;;;;;5069171;28;19924;-64
2021/06/23 12:11:06;;;;;;;;;;;;;;;;;;5071563;28;19924;-64
2021/06/23 12:13:33;;;;;;;;;;;;;;;;;;5071844;28;19931;-64
2021/06/23 12:16:00;;;;;;;;;;;;;;;;;;5071699;28;19924;-66
2021/06/23 12:18:27;;;;;;;;;;;;;;;;;;5071398;28;19925;-64
2021/06/23 12:20:54;;;;;;;;;;;;;;;;;;5071160;28;20389;-64
2021/06/23 12:23:20;;;;;;;;;;;;;;;;;;5072745;28;19929;-64
2021/06/23 12:25:47;;;;;;;;;;;;;;;;;;5071235;28;19932;-64
2021/06/23 12:28:15;;;;;;;;;;;;;;;;;;5071209;28;19954;-64
2021/06/23 12:30:42;;;;;;;;;;;;;;;;;;5071001;28;19925;-64
2021/06/23 12:33:10;;;;;;;;;;;;;;;;;;5071478;28;19931;-64
2021/06/23 12:35:37;;;;;;;;;;;;;;;;;;5070957;28;20296;-63
2021/06/23 12:38:04;;;;;;;;;;;;;;;;;;5071333;28;19928;-64
2021/06/23 12:40:31;;;;;;;;;;;;;;;;;;5070893;28;19931;-64
2021/06/23 12:42:58;;;;;;;;;;;;;;;;;;5071352;28;19928;-64
2021/06/23 12:45:25;;;;;;;;;;;;;;;;;;5070950;28;19960;-64
2021/06/23 12:47:52;;;;;;;;;;;;;;;;;;5071383;28;20273;-65
2021/06/23 12:50:19;;;;;;;;;;;;;;;;;;5073707;28;19951;-63
2021/06/23 12:52:46;;;;;;;;;;;;;;;;;;5075953;28;19924;-64
2021/06/23 12:55:13;;;;;;;;;;;;;;;;;;5075267;28;19924;-64
2021/06/23 12:57:40;;;;;;;;;;;;;;;;;;5075023;28;19924;-63
2021/06/23 13:00:07;;;;;;;;;;;;;;;;;;5074787;28;20311;-65
2021/06/23 13:02:34;;;;;;;;;;;;;;;;;;5074810;28;20410;-66
2021/06/23 13:05:01;;;;;;;;;;;;;;;;;;5074815;28;19928;-63
2021/06/23 13:07:28;;;;;;;;;;;;;;;;;;5067548;28;19925;-65
2021/06/23 13:09:54;;;;;;;;;;;;;;;;;;5054379;28;19954;-63
2021/06/23 13:12:21;;;;;;;;;;;;;;;;;;5054718;28;19925;-64
2021/06/23 13:14:48;;;;;;;;;;;;;;;;;;5054787;28;19925;-63
2021/06/23 13:17:15;;;;;;;;;;;;;;;;;;5055094;28;20309;-62
2021/06/23 13:19:42;;;;;;;;;;;;;;;;;;5054235;28;19973;-64
2021/06/23 13:22:11;;;;;;;;;;;;;;;;;;5054493;28;20018;-62
2021/06/23 13:24:38;;;;;;;;;;;;;;;;;;5054351;28;19924;-63
2021/06/23 13:27:05;;;;;;;;;;;;;;;;;;5054200;28;20415;-64
2021/06/23 13:29:32;;;;;;;;;;;;;;;;;;5054144;28;19931;-65
2021/06/23 13:31:59;;;;;;;;;;;;;;;;;;5053950;28;19935;-65
2021/06/23 13:34:26;;;;;;;;;;;;;;;;;;5054486;28;19925;-63
2021/06/23 13:36:53;;;;;;;;;;;;;;;;;;5054261;28;20288;-62
2021/06/23 13:39:20;;;;;;;;;;;;;;;;;;5054055;28;19955;-64
2021/06/23 13:41:47;;;;;;;;;;;;;;;;;;5054326;28;19925;-64
2021/06/23 13:44:14;;;;;;;;;;;;;;;;;;5054240;28;19932;-64
2021/06/23 13:46:41;;;;;;;;;;;;;;;;;;5053971;28;20396;-64
2021/06/23 13:49:08;;;;;;;;;;;;;;;;;;5053810;28;19925;-63
2021/06/23 13:51:35;;;;;;;;;;;;;;;;;;5054132;28;19929;-64
2021/06/23 13:54:02;;;;;;;;;;;;;;;;;;5054156;28;19925;-63
2021/06/23 13:56:29;;;;;;;;;;;;;;;;;;5053941;28;19975;-64
2021/06/23 13:58:56;;;;;;;;;;;;;;;;;;5054130;28;19925;-64
2021/06/23 14:01:23;;;;;;;;;;;;;;;;;;5053520;28;20453;-64
2021/06/23 14:03:54;;;;;;;;;;;;;;;;;;5053930;28;20121;-64
2021/06/23 14:06:21;;;;;;;;;;;;;;;;;;5053516;28;19929;-64
2021/06/23 14:08:48;;;;;;;;;;;;;;;;;;5071896;28;20023;-63
2021/06/23 14:11:15;;;;;;;;;;;;;;;;;;5073322;28;20316;-64
2021/06/23 14:13:42;;;;;;;;;;;;;;;;;;5073482;28;19924;-64
2021/06/23 14:16:08;;;;;;;;;;;;;;;;;;5073176;28;19924;-64
2021/06/23 14:18:35;;;;;;;;;;;;;;;;;;5073575;28;19931;-64
2021/06/23 14:21:02;;;;;;;;;;;;;;;;;;5073204;28;19924;-63
2021/06/23 14:23:29;;;;;;;;;;;;;;;;;;5073493;28;19924;-64
2021/06/23 14:25:56;;;;;;;;;;;;;;;;;;5073014;28;19925;-65
2021/06/23 14:28:23;;;;;;;;;;;;;;;;;;5073020;28;19932;-63
2021/06/23 14:30:50;;;;;;;;;;;;;;;;;;5073287;28;19970;-64
2021/06/23 14:33:17;;;;;;;;;;;;;;;;;;5073441;28;19931;-64
2021/06/23 14:35:44;;;;;;;;;;;;;;;;;;5073092;28;19928;-64
2021/06/23 14:38:11;;;;;;;;;;;;;;;;;;5072873;28;19924;-64
2021/06/23 14:40:40;;;;;;;;;;;;;;;;;;5072743;28;20376;-65
2021/06/23 14:43:07;;;;;;;;;;;;;;;;;;5072948;28;19954;-63
2021/06/23 14:45:34;;;;;;;;;;;;;;;;;;5073116;28;20308;-64
2021/06/23 14:48:01;;;;;;;;;;;;;;;;;;5073025;28;19983;-64
2021/06/23 14:50:28;;;;;;;;;;;;;;;;;;5072324;28;19966;-65
2021/06/23 14:52:55;;;;;;;;;;;;;;;;;;5072913;28;19928;-63
2021/06/23 14:55:25;;;;;;;;;;;;;;;;;;5072993;28;20295;-64
2021/06/23 14:57:52;;;;;;;;;;;;;;;;;;5072914;28;19924;-64
2021/06/23 15:00:19;;;;;;;;;;;;;;;;;;5072381;28;20011;-63
2021/06/23 15:02:46;;;;;;;;;;;;;;;;;;5073107;28;20384;-64
2021/06/23 15:05:13;;;;;;;;;;;;;;;;;;5072698;28;19924;-63
2021/06/23 15:07:40;;;;;;;;;;;;;;;;;;5063344;28;19971;-63
2021/06/23 15:10:09;;;;;;;;;;;;;;;;;;5052640;28;19925;-63
2021/06/23 15:12:36;;;;;;;;;;;;;;;;;;5052015;28;19928;-65
2021/06/23 15:15:03;;;;;;;;;;;;;;;;;;5052756;28;19925;-64
2021/06/23 15:17:29;;;;;;;;;;;;;;;;;;5052323;28;19950;-64
2021/06/23 15:19:56;;;;;;;;;;;;;;;;;;5052378;28;19978;-65
2021/06/23 15:22:23;;;;;;;;;;;;;;;;;;5052740;28;19925;-65
2021/06/23 15:24:50;;;;;;;;;;;;;;;;;;5052471;28;19947;-64
2021/06/23 15:27:17;;;;;;;;;;;;;;;;;;5052488;28;19971;-64
2021/06/23 15:29:44;;;;;;;;;;;;;;;;;;5097647;22;19924;-64
2021/06/23 15:32:11;;;;;;;;;;;;;;;;;;5113313;28;20472;-65
2021/06/23 15:34:38;;;;;;;;;;;;;;;;;;5113367;28;19924;-64
2021/06/23 15:37:05;;;;;;;;;;;;;;;;;;5112976;28;19997;-63
2021/06/23 15:39:32;;;;;;;;;;;;;;;;;;5112848;28;19976;-64
2021/06/23 15:41:59;;;;;;;;;;;;;;;;;;5113091;28;19977;-65
2021/06/23 15:44:26;;;;;;;;;;;;;;;;;;5113118;28;19959;-64
2021/06/23 15:46:54;;;;;;;;;;;;;;;;;;5112912;28;19924;-63
2021/06/23 15:49:21;;;;;;;;;;;;;;;;;;5113133;28;19951;-67
2021/06/23 15:51:48;;;;;;;;;;;;;;;;;;5112797;28;20497;-66
2021/06/23 15:54:15;;;;;;;;;;;;;;;;;;5113047;28;19924;-65
2021/06/23 15:56:42;;;;;;;;;;;;;;;;;;5112743;28;19927;-66
2021/06/23 15:59:09;;;;;;;;;;;;;;;;;;5112628;28;19974;-67
2021/06/23 16:01:36;;;;;;;;;;;;;;;;;;5112484;28;19928;-63
2021/06/23 16:04:06;;;;;;;;;;;;;;;;;;5112705;28;19924;-63
2021/06/23 16:06:33;;;;;;;;;;;;;;;;;;5112304;28;19990;-65
2021/06/23 16:09:02;;;;;;;;;;;;;;;;;;5092511;28;19969;-64
2021/06/23 16:11:29;;;;;;;;;;;;;;;;;;5092465;28;19986;-64
2021/06/23 16:13:56;;;;;;;;;;;;;;;;;;5092512;28;19924;-65
2021/06/23 16:16:24;;;;;;;;;;;;;;;;;;5092139;28;19924;-65
2021/06/23 16:18:51;;;;;;;;;;;;;;;;;;5092325;28;20007;-65
2021/06/23 16:21:19;;;;;;;;;;;;;;;;;;5092147;28;19970;-64
2021/06/23 16:23:48;;;;;;;;;;;;;;;;;;5092003;28;19931;-65
2021/06/23 16:26:15;;;;;;;;;;;;;;;;;;5092159;28;20424;-65
2021/06/23 16:28:42;;;;;;;;;;;;;;;;;;5092252;28;19986;-65
2021/06/23 16:31:09;;;;;;;;;;;;;;;;;;5092314;28;20410;-64
2021/06/23 16:33:36;;;;;;;;;;;;;;;;;;5092388;28;19955;-66
2021/06/23 16:36:03;;;;;;;;;;;;;;;;;;5092394;28;19928;-64
2021/06/23 16:38:31;;;;;;;;;;;;;;;;;;5092467;28;19970;-66